sensor_id;sensor_type;location;lat;lon;timestamp;temperature;humidity
16578;DHT22;8401;52.528;13.340;2023-05-10T00:00:33;13.80;97.30
16578;DHT22;8401;52.528;13.340;2023-05-10T00:02:59;13.80;97.40
16578;DHT22;8401;52.528;13.340;2023-05-10T00:05:25;13.80;97.60
16578;DHT22;8401;52.528;13.340;2023-05-10T00:07:50;13.70;97.60
16578;DHT22;8401;52.528;13.340;2023-05-10T00:10:16;13.70;97.70
16578;DHT22;8401;52.528;13.340;2023-05-10T00:12:42;13.70;97.80
16578;DHT22;8401;52.528;13.340;2023-05-10T00:15:08;13.70;98.00
16578;DHT22;8401;52.528;13.340;2023-05-10T00:17:34;13.60;98.10
16578;DHT22;8401;52.528;13.340;2023-05-10T00:20:00;13.60;98.10
16578;DHT22;8401;52.528;13.340;2023-05-10T00:22:25;13.60;98.20
16578;DHT22;8401;52.528;13.340;2023-05-10T00:24:51;13.60;98.30
16578;DHT22;8401;52.528;13.340;2023-05-10T00:27:17;13.60;98.30
16578;DHT22;8401;52.528;13.340;2023-05-10T00:29:42;13.60;98.40
16578;DHT22;8401;52.528;13.340;2023-05-10T00:32:08;13.50;98.40
16578;DHT22;8401;52.528;13.340;2023-05-10T00:34:33;13.50;98.50
16578;DHT22;8401;52.528;13.340;2023-05-10T00:36:59;13.50;98.60
16578;DHT22;8401;52.528;13.340;2023-05-10T00:39:25;13.50;98.60
16578;DHT22;8401;52.528;13.340;2023-05-10T00:41:52;13.50;98.80
16578;DHT22;8401;52.528;13.340;2023-05-10T00:44:17;13.40;98.90
16578;DHT22;8401;52.528;13.340;2023-05-10T00:46:44;13.40;98.90
16578;DHT22;8401;52.528;13.340;2023-05-10T00:49:10;13.40;99.00
16578;DHT22;8401;52.528;13.340;2023-05-10T00:51:36;13.40;99.20
16578;DHT22;8401;52.528;13.340;2023-05-10T00:54:02;13.30;99.30
16578;DHT22;8401;52.528;13.340;2023-05-10T00:56:28;13.40;99.30
16578;DHT22;8401;52.528;13.340;2023-05-10T00:58:55;13.30;99.50
16578;DHT22;8401;52.528;13.340;2023-05-10T01:01:21;13.30;99.50
16578;DHT22;8401;52.528;13.340;2023-05-10T01:03:46;13.20;99.60
16578;DHT22;8401;52.528;13.340;2023-05-10T01:06:12;13.20;99.80
16578;DHT22;8401;52.528;13.340;2023-05-10T01:08:38;13.10;99.80
16578;DHT22;8401;52.528;13.340;2023-05-10T01:11:04;13.10;99.90
16578;DHT22;8401;52.528;13.340;2023-05-10T01:13:36;13.00;99.90
16578;DHT22;8401;52.528;13.340;2023-05-10T01:16:03;13.00;99.90
16578;DHT22;8401;52.528;13.340;2023-05-10T01:18:30;12.90;99.90
16578;DHT22;8401;52.528;13.340;2023-05-10T01:34:54;12.80;99.90
16578;DHT22;8401;52.528;13.340;2023-05-10T01:38:32;12.80;99.90
16578;DHT22;8401;52.528;13.340;2023-05-10T01:40:52;12.70;99.90
16578;DHT22;8401;52.528;13.340;2023-05-10T01:43:29;12.70;99.90
16578;DHT22;8401;52.528;13.340;2023-05-10T01:46:17;12.60;99.90
16578;DHT22;8401;52.528;13.340;2023-05-10T01:48:52;12.60;99.90
16578;DHT22;8401;52.528;13.340;2023-05-10T01:51:25;12.60;99.90
16578;DHT22;8401;52.528;13.340;2023-05-10T01:53:54;12.50;99.90
16578;DHT22;8401;52.528;13.340;2023-05-10T01:56:24;12.50;99.90
16578;DHT22;8401;52.528;13.340;2023-05-10T01:58:52;12.40;99.90
16578;DHT22;8401;52.528;13.340;2023-05-10T02:01:20;12.40;99.90
16578;DHT22;8401;52.528;13.340;2023-05-10T02:03:46;12.40;99.90
16578;DHT22;8401;52.528;13.340;2023-05-10T02:06:14;12.40;99.90
16578;DHT22;8401;52.528;13.340;2023-05-10T02:08:40;12.40;99.90
16578;DHT22;8401;52.528;13.340;2023-05-10T02:11:07;12.30;99.90
16578;DHT22;8401;52.528;13.340;2023-05-10T02:13:34;12.30;99.90
16578;DHT22;8401;52.528;13.340;2023-05-10T02:16:03;12.30;99.90
16578;DHT22;8401;52.528;13.340;2023-05-10T02:18:31;12.30;99.90
16578;DHT22;8401;52.528;13.340;2023-05-10T02:20:59;12.30;99.90
16578;DHT22;8401;52.528;13.340;2023-05-10T02:23:26;12.20;99.90
16578;DHT22;8401;52.528;13.340;2023-05-10T02:25:54;12.10;99.90
16578;DHT22;8401;52.528;13.340;2023-05-10T02:28:23;12.20;99.90
16578;DHT22;8401;52.528;13.340;2023-05-10T02:30:51;12.10;99.90
16578;DHT22;8401;52.528;13.340;2023-05-10T02:33:17;12.10;99.90
16578;DHT22;8401;52.528;13.340;2023-05-10T02:35:43;12.20;99.90
16578;DHT22;8401;52.528;13.340;2023-05-10T02:38:10;12.10;99.90
16578;DHT22;8401;52.528;13.340;2023-05-10T02:40:37;12.00;99.90
16578;DHT22;8401;52.528;13.340;2023-05-10T02:43:04;12.10;99.90
16578;DHT22;8401;52.528;13.340;2023-05-10T02:45:32;12.10;99.90
16578;DHT22;8401;52.528;13.340;2023-05-10T02:47:59;12.00;99.90
16578;DHT22;8401;52.528;13.340;2023-05-10T02:50:27;12.00;99.90
16578;DHT22;8401;52.528;13.340;2023-05-10T02:53:01;12.00;99.90
16578;DHT22;8401;52.528;13.340;2023-05-10T02:55:33;12.00;99.90
16578;DHT22;8401;52.528;13.340;2023-05-10T02:58:01;12.00;99.90
16578;DHT22;8401;52.528;13.340;2023-05-10T03:00:27;12.00;99.90
16578;DHT22;8401;52.528;13.340;2023-05-10T03:02:53;11.90;99.90
16578;DHT22;8401;52.528;13.340;2023-05-10T03:05:19;11.90;99.90
16578;DHT22;8401;52.528;13.340;2023-05-10T03:07:46;11.90;99.90
16578;DHT22;8401;52.528;13.340;2023-05-10T03:10:11;11.80;99.90
16578;DHT22;8401;52.528;13.340;2023-05-10T03:18:37;11.70;99.90
16578;DHT22;8401;52.528;13.340;2023-05-10T03:21:04;11.70;99.90
16578;DHT22;8401;52.528;13.340;2023-05-10T03:23:38;11.70;99.90
16578;DHT22;8401;52.528;13.340;2023-05-10T03:26:06;11.60;99.90
16578;DHT22;8401;52.528;13.340;2023-05-10T03:28:34;11.60;99.90
16578;DHT22;8401;52.528;13.340;2023-05-10T03:31:00;11.60;99.90
16578;DHT22;8401;52.528;13.340;2023-05-10T03:33:27;11.60;99.90
16578;DHT22;8401;52.528;13.340;2023-05-10T03:35:53;11.60;99.90
16578;DHT22;8401;52.528;13.340;2023-05-10T03:38:19;11.60;99.90
16578;DHT22;8401;52.528;13.340;2023-05-10T03:40:44;11.60;99.90
16578;DHT22;8401;52.528;13.340;2023-05-10T03:43:10;11.60;99.90
16578;DHT22;8401;52.528;13.340;2023-05-10T03:45:36;11.50;99.90
16578;DHT22;8401;52.528;13.340;2023-05-10T03:48:02;11.50;99.90
16578;DHT22;8401;52.528;13.340;2023-05-10T03:50:28;11.50;99.90
16578;DHT22;8401;52.528;13.340;2023-05-10T03:52:53;11.50;99.90
16578;DHT22;8401;52.528;13.340;2023-05-10T03:55:19;11.50;99.90
16578;DHT22;8401;52.528;13.340;2023-05-10T03:57:45;11.50;99.90
16578;DHT22;8401;52.528;13.340;2023-05-10T04:00:11;11.50;99.90
16578;DHT22;8401;52.528;13.340;2023-05-10T04:02:37;11.50;99.90
16578;DHT22;8401;52.528;13.340;2023-05-10T04:05:02;11.50;99.90
16578;DHT22;8401;52.528;13.340;2023-05-10T04:07:28;11.50;99.90
16578;DHT22;8401;52.528;13.340;2023-05-10T04:09:54;11.50;99.90
16578;DHT22;8401;52.528;13.340;2023-05-10T04:12:20;11.60;99.90
16578;DHT22;8401;52.528;13.340;2023-05-10T04:14:45;11.50;99.90
16578;DHT22;8401;52.528;13.340;2023-05-10T04:17:11;11.50;99.90
16578;DHT22;8401;52.528;13.340;2023-05-10T04:19:37;11.50;99.90
16578;DHT22;8401;52.528;13.340;2023-05-10T04:22:03;11.50;99.90
16578;DHT22;8401;52.528;13.340;2023-05-10T04:24:28;11.50;99.90
16578;DHT22;8401;52.528;13.340;2023-05-10T04:26:54;11.60;99.90
16578;DHT22;8401;52.528;13.340;2023-05-10T04:29:20;11.60;99.90
16578;DHT22;8401;52.528;13.340;2023-05-10T04:31:46;11.50;99.90
16578;DHT22;8401;52.528;13.340;2023-05-10T04:34:12;11.60;99.90
16578;DHT22;8401;52.528;13.340;2023-05-10T04:36:37;11.60;99.90
16578;DHT22;8401;52.528;13.340;2023-05-10T04:39:03;11.60;99.90
16578;DHT22;8401;52.528;13.340;2023-05-10T04:41:29;11.60;99.90
16578;DHT22;8401;52.528;13.340;2023-05-10T04:43:55;11.70;99.90
16578;DHT22;8401;52.528;13.340;2023-05-10T04:46:21;11.70;99.90
16578;DHT22;8401;52.528;13.340;2023-05-10T04:48:47;11.70;99.90
16578;DHT22;8401;52.528;13.340;2023-05-10T04:51:12;11.80;99.90
16578;DHT22;8401;52.528;13.340;2023-05-10T04:53:38;11.70;99.90
16578;DHT22;8401;52.528;13.340;2023-05-10T04:56:04;11.80;99.90
16578;DHT22;8401;52.528;13.340;2023-05-10T04:58:30;11.80;99.90
16578;DHT22;8401;52.528;13.340;2023-05-10T05:00:56;11.90;99.90
16578;DHT22;8401;52.528;13.340;2023-05-10T05:03:21;11.90;99.90
16578;DHT22;8401;52.528;13.340;2023-05-10T05:05:47;11.90;99.90
16578;DHT22;8401;52.528;13.340;2023-05-10T05:08:13;12.00;99.90
16578;DHT22;8401;52.528;13.340;2023-05-10T05:10:39;12.00;99.90
16578;DHT22;8401;52.528;13.340;2023-05-10T05:13:04;12.10;99.90
16578;DHT22;8401;52.528;13.340;2023-05-10T05:15:30;12.10;99.90
16578;DHT22;8401;52.528;13.340;2023-05-10T05:17:56;12.20;99.90
16578;DHT22;8401;52.528;13.340;2023-05-10T05:20:22;12.30;99.90
16578;DHT22;8401;52.528;13.340;2023-05-10T05:22:48;12.40;99.90
16578;DHT22;8401;52.528;13.340;2023-05-10T05:25:13;12.40;99.90
16578;DHT22;8401;52.528;13.340;2023-05-10T05:27:40;12.50;99.90
16578;DHT22;8401;52.528;13.340;2023-05-10T05:30:06;12.60;99.90
16578;DHT22;8401;52.528;13.340;2023-05-10T05:32:32;12.70;99.90
16578;DHT22;8401;52.528;13.340;2023-05-10T05:34:58;12.80;99.90
16578;DHT22;8401;52.528;13.340;2023-05-10T05:37:24;12.80;99.90
16578;DHT22;8401;52.528;13.340;2023-05-10T05:39:50;12.90;99.90
16578;DHT22;8401;52.528;13.340;2023-05-10T05:42:16;13.00;99.90
16578;DHT22;8401;52.528;13.340;2023-05-10T05:44:43;13.00;99.90
16578;DHT22;8401;52.528;13.340;2023-05-10T05:47:09;13.10;99.90
16578;DHT22;8401;52.528;13.340;2023-05-10T05:49:34;13.30;99.90
16578;DHT22;8401;52.528;13.340;2023-05-10T05:52:01;13.30;99.90
16578;DHT22;8401;52.528;13.340;2023-05-10T05:54:27;13.40;99.90
16578;DHT22;8401;52.528;13.340;2023-05-10T05:56:57;13.50;99.90
16578;DHT22;8401;52.528;13.340;2023-05-10T05:59:23;13.60;99.90
16578;DHT22;8401;52.528;13.340;2023-05-10T06:01:49;13.70;99.90
16578;DHT22;8401;52.528;13.340;2023-05-10T06:04:14;13.70;99.90
16578;DHT22;8401;52.528;13.340;2023-05-10T06:06:40;13.80;99.90
16578;DHT22;8401;52.528;13.340;2023-05-10T06:09:06;13.90;99.90
16578;DHT22;8401;52.528;13.340;2023-05-10T06:11:31;13.90;99.90
16578;DHT22;8401;52.528;13.340;2023-05-10T06:13:58;14.00;99.90
16578;DHT22;8401;52.528;13.340;2023-05-10T06:16:23;14.00;99.90
16578;DHT22;8401;52.528;13.340;2023-05-10T06:18:49;14.10;99.90
16578;DHT22;8401;52.528;13.340;2023-05-10T06:21:15;14.10;99.90
16578;DHT22;8401;52.528;13.340;2023-05-10T06:23:41;14.10;99.90
16578;DHT22;8401;52.528;13.340;2023-05-10T06:26:07;14.10;99.90
16578;DHT22;8401;52.528;13.340;2023-05-10T06:28:33;14.10;99.90
16578;DHT22;8401;52.528;13.340;2023-05-10T06:30:59;14.20;99.90
16578;DHT22;8401;52.528;13.340;2023-05-10T06:33:25;14.30;99.90
16578;DHT22;8401;52.528;13.340;2023-05-10T06:35:51;14.30;99.90
16578;DHT22;8401;52.528;13.340;2023-05-10T06:38:17;14.30;99.90
16578;DHT22;8401;52.528;13.340;2023-05-10T06:40:42;14.50;99.90
16578;DHT22;8401;52.528;13.340;2023-05-10T06:43:08;14.60;99.90
16578;DHT22;8401;52.528;13.340;2023-05-10T06:45:34;14.70;99.90
16578;DHT22;8401;52.528;13.340;2023-05-10T06:48:00;14.80;99.90
16578;DHT22;8401;52.528;13.340;2023-05-10T06:50:26;14.90;99.90
16578;DHT22;8401;52.528;13.340;2023-05-10T06:52:52;14.90;99.90
16578;DHT22;8401;52.528;13.340;2023-05-10T06:55:18;15.00;99.90
16578;DHT22;8401;52.528;13.340;2023-05-10T06:57:43;15.10;99.90
16578;DHT22;8401;52.528;13.340;2023-05-10T07:00:09;15.10;99.90
16578;DHT22;8401;52.528;13.340;2023-05-10T07:02:36;15.20;99.90
16578;DHT22;8401;52.528;13.340;2023-05-10T07:05:01;15.30;99.90
16578;DHT22;8401;52.528;13.340;2023-05-10T07:07:27;15.60;99.90
16578;DHT22;8401;52.528;13.340;2023-05-10T07:09:53;15.70;99.90
16578;DHT22;8401;52.528;13.340;2023-05-10T07:12:19;15.70;99.90
16578;DHT22;8401;52.528;13.340;2023-05-10T07:14:45;15.70;99.90
16578;DHT22;8401;52.528;13.340;2023-05-10T07:17:11;16.00;99.90
16578;DHT22;8401;52.528;13.340;2023-05-10T07:19:36;16.00;99.60
16578;DHT22;8401;52.528;13.340;2023-05-10T07:22:02;15.90;99.70
16578;DHT22;8401;52.528;13.340;2023-05-10T07:24:28;16.00;99.80
16578;DHT22;8401;52.528;13.340;2023-05-10T07:26:53;16.20;99.70
16578;DHT22;8401;52.528;13.340;2023-05-10T07:29:19;16.40;99.60
16578;DHT22;8401;52.528;13.340;2023-05-10T07:31:44;16.70;99.10
16578;DHT22;8401;52.528;13.340;2023-05-10T07:34:10;16.80;98.90
16578;DHT22;8401;52.528;13.340;2023-05-10T07:36:36;17.00;98.50
16578;DHT22;8401;52.528;13.340;2023-05-10T07:39:01;17.10;98.10
16578;DHT22;8401;52.528;13.340;2023-05-10T07:41:27;17.30;98.10
16578;DHT22;8401;52.528;13.340;2023-05-10T07:43:53;17.50;97.80
16578;DHT22;8401;52.528;13.340;2023-05-10T07:46:18;17.60;97.80
16578;DHT22;8401;52.528;13.340;2023-05-10T07:48:47;17.70;97.50
16578;DHT22;8401;52.528;13.340;2023-05-10T07:51:12;17.80;97.30
16578;DHT22;8401;52.528;13.340;2023-05-10T07:53:38;17.90;97.20
16578;DHT22;8401;52.528;13.340;2023-05-10T07:56:24;17.90;96.90
16578;DHT22;8401;52.528;13.340;2023-05-10T07:58:51;18.00;96.80
16578;DHT22;8401;52.528;13.340;2023-05-10T08:01:17;18.30;96.70
16578;DHT22;8401;52.528;13.340;2023-05-10T08:03:43;18.60;96.50
16578;DHT22;8401;52.528;13.340;2023-05-10T08:06:09;18.70;95.80
16578;DHT22;8401;52.528;13.340;2023-05-10T08:08:34;18.90;95.70
16578;DHT22;8401;52.528;13.340;2023-05-10T08:11:00;19.30;95.10
16578;DHT22;8401;52.528;13.340;2023-05-10T08:13:26;20.30;94.30
16578;DHT22;8401;52.528;13.340;2023-05-10T08:15:51;21.30;93.10
16578;DHT22;8401;52.528;13.340;2023-05-10T08:18:19;21.70;92.20
16578;DHT22;8401;52.528;13.340;2023-05-10T08:20:44;21.70;91.30
16578;DHT22;8401;52.528;13.340;2023-05-10T08:23:12;21.80;91.40
16578;DHT22;8401;52.528;13.340;2023-05-10T08:25:38;22.10;90.80
16578;DHT22;8401;52.528;13.340;2023-05-10T08:28:04;22.10;90.80
16578;DHT22;8401;52.528;13.340;2023-05-10T08:30:29;22.30;90.60
16578;DHT22;8401;52.528;13.340;2023-05-10T08:32:55;22.40;90.50
16578;DHT22;8401;52.528;13.340;2023-05-10T08:35:20;22.40;90.00
16578;DHT22;8401;52.528;13.340;2023-05-10T08:37:46;22.40;90.10
16578;DHT22;8401;52.528;13.340;2023-05-10T08:40:12;22.90;90.00
16578;DHT22;8401;52.528;13.340;2023-05-10T08:42:40;23.10;90.00
16578;DHT22;8401;52.528;13.340;2023-05-10T08:45:07;23.40;88.80
16578;DHT22;8401;52.528;13.340;2023-05-10T08:47:36;24.20;88.10
16578;DHT22;8401;52.528;13.340;2023-05-10T08:50:03;24.60;86.00
16578;DHT22;8401;52.528;13.340;2023-05-10T08:52:30;24.10;86.00
16578;DHT22;8401;52.528;13.340;2023-05-10T08:54:58;24.00;86.50
16578;DHT22;8401;52.528;13.340;2023-05-10T08:57:24;24.00;85.90
16578;DHT22;8401;52.528;13.340;2023-05-10T08:59:50;24.70;85.90
16578;DHT22;8401;52.528;13.340;2023-05-10T09:02:16;24.60;85.40
16578;DHT22;8401;52.528;13.340;2023-05-10T09:04:43;24.40;85.40
16578;DHT22;8401;52.528;13.340;2023-05-10T09:07:10;24.10;85.00
16578;DHT22;8401;52.528;13.340;2023-05-10T09:09:36;23.60;86.00
16578;DHT22;8401;52.528;13.340;2023-05-10T09:12:02;23.60;85.70
16578;DHT22;8401;52.528;13.340;2023-05-10T09:14:28;24.40;85.90
16578;DHT22;8401;52.528;13.340;2023-05-10T09:16:54;25.70;85.00
16578;DHT22;8401;52.528;13.340;2023-05-10T09:19:20;26.80;83.80
16578;DHT22;8401;52.528;13.340;2023-05-10T09:21:46;27.10;82.20
16578;DHT22;8401;52.528;13.340;2023-05-10T09:24:12;27.70;82.10
16578;DHT22;8401;52.528;13.340;2023-05-10T09:26:48;28.20;81.00
16578;DHT22;8401;52.528;13.340;2023-05-10T09:29:14;28.60;79.40
16578;DHT22;8401;52.528;13.340;2023-05-10T09:31:58;28.50;79.00
16578;DHT22;8401;52.528;13.340;2023-05-10T09:34:31;28.60;79.20
16578;DHT22;8401;52.528;13.340;2023-05-10T09:36:59;29.20;78.80
16578;DHT22;8401;52.528;13.340;2023-05-10T09:39:38;29.40;78.70
16578;DHT22;8401;52.528;13.340;2023-05-10T09:42:07;29.60;78.30
16578;DHT22;8401;52.528;13.340;2023-05-10T09:44:33;29.10;77.90
16578;DHT22;8401;52.528;13.340;2023-05-10T09:47:00;28.40;78.20
16578;DHT22;8401;52.528;13.340;2023-05-10T09:49:26;28.80;78.30
16578;DHT22;8401;52.528;13.340;2023-05-10T09:52:05;28.80;78.00
16578;DHT22;8401;52.528;13.340;2023-05-10T09:54:32;29.30;77.00
16578;DHT22;8401;52.528;13.340;2023-05-10T09:56:58;29.70;76.80
16578;DHT22;8401;52.528;13.340;2023-05-10T09:59:26;29.60;76.70
16578;DHT22;8401;52.528;13.340;2023-05-10T10:01:53;29.20;76.20
16578;DHT22;8401;52.528;13.340;2023-05-10T10:04:21;28.70;76.60
16578;DHT22;8401;52.528;13.340;2023-05-10T10:06:58;28.70;77.50
16578;DHT22;8401;52.528;13.340;2023-05-10T10:09:25;29.50;77.10
16578;DHT22;8401;52.528;13.340;2023-05-10T10:11:51;28.70;76.00
16578;DHT22;8401;52.528;13.340;2023-05-10T10:14:18;30.20;76.20
16578;DHT22;8401;52.528;13.340;2023-05-10T10:16:44;29.20;74.80
16578;DHT22;8401;52.528;13.340;2023-05-10T10:19:10;29.30;74.80
16578;DHT22;8401;52.528;13.340;2023-05-10T10:21:36;29.60;75.20
16578;DHT22;8401;52.528;13.340;2023-05-10T10:24:02;30.00;75.00
16578;DHT22;8401;52.528;13.340;2023-05-10T10:26:30;30.30;74.50
16578;DHT22;8401;52.528;13.340;2023-05-10T10:29:19;30.90;73.60
16578;DHT22;8401;52.528;13.340;2023-05-10T10:34:29;29.70;73.60
16578;DHT22;8401;52.528;13.340;2023-05-10T10:36:56;30.10;73.40
16578;DHT22;8401;52.528;13.340;2023-05-10T10:39:22;30.70;72.90
16578;DHT22;8401;52.528;13.340;2023-05-10T10:41:53;31.10;72.40
16578;DHT22;8401;52.528;13.340;2023-05-10T10:47:06;30.80;72.90
16578;DHT22;8401;52.528;13.340;2023-05-10T10:52:26;30.80;72.90
16578;DHT22;8401;52.528;13.340;2023-05-10T10:57:47;32.70;71.10
16578;DHT22;8401;52.528;13.340;2023-05-10T11:00:31;32.40;70.20
16578;DHT22;8401;52.528;13.340;2023-05-10T11:03:05;31.70;69.90
16578;DHT22;8401;52.528;13.340;2023-05-10T11:05:36;31.90;70.60
16578;DHT22;8401;52.528;13.340;2023-05-10T11:08:25;32.00;69.60
16578;DHT22;8401;52.528;13.340;2023-05-10T11:13:38;32.40;68.90
16578;DHT22;8401;52.528;13.340;2023-05-10T11:18:40;33.50;67.20
16578;DHT22;8401;52.528;13.340;2023-05-10T11:21:09;33.40;67.20
16578;DHT22;8401;52.528;13.340;2023-05-10T11:23:53;32.80;67.40
16578;DHT22;8401;52.528;13.340;2023-05-10T11:26:25;32.30;67.30
16578;DHT22;8401;52.528;13.340;2023-05-10T11:28:53;31.80;68.70
16578;DHT22;8401;52.528;13.340;2023-05-10T11:31:21;33.10;67.10
16578;DHT22;8401;52.528;13.340;2023-05-10T11:33:55;33.30;67.20
16578;DHT22;8401;52.528;13.340;2023-05-10T11:36:24;33.40;67.40
16578;DHT22;8401;52.528;13.340;2023-05-10T11:38:50;33.20;66.70
16578;DHT22;8401;52.528;13.340;2023-05-10T11:41:18;33.10;65.90
16578;DHT22;8401;52.528;13.340;2023-05-10T11:43:47;33.00;66.30
16578;DHT22;8401;52.528;13.340;2023-05-10T11:46:14;33.70;65.30
16578;DHT22;8401;52.528;13.340;2023-05-10T11:48:42;32.30;65.20
16578;DHT22;8401;52.528;13.340;2023-05-10T11:51:09;33.60;65.80
16578;DHT22;8401;52.528;13.340;2023-05-10T11:53:35;34.80;64.60
16578;DHT22;8401;52.528;13.340;2023-05-10T11:56:05;33.70;63.20
16578;DHT22;8401;52.528;13.340;2023-05-10T11:58:32;31.50;64.10
16578;DHT22;8401;52.528;13.340;2023-05-10T12:00:59;29.30;64.70
16578;DHT22;8401;52.528;13.340;2023-05-10T12:03:25;28.10;66.50
16578;DHT22;8401;52.528;13.340;2023-05-10T12:05:51;27.50;67.40
16578;DHT22;8401;52.528;13.340;2023-05-10T12:08:24;27.20;68.00
16578;DHT22;8401;52.528;13.340;2023-05-10T12:10:51;26.60;68.70
16578;DHT22;8401;52.528;13.340;2023-05-10T12:13:17;26.10;68.90
16578;DHT22;8401;52.528;13.340;2023-05-10T12:15:44;25.50;69.60
16578;DHT22;8401;52.528;13.340;2023-05-10T12:18:13;25.00;70.70
16578;DHT22;8401;52.528;13.340;2023-05-10T12:20:39;24.80;70.90
16578;DHT22;8401;52.528;13.340;2023-05-10T12:23:07;24.70;71.50
16578;DHT22;8401;52.528;13.340;2023-05-10T12:25:34;24.80;71.10
16578;DHT22;8401;52.528;13.340;2023-05-10T12:28:04;24.80;71.60
16578;DHT22;8401;52.528;13.340;2023-05-10T12:30:32;24.50;71.80
16578;DHT22;8401;52.528;13.340;2023-05-10T12:35:31;24.30;72.70
16578;DHT22;8401;52.528;13.340;2023-05-10T12:37:57;24.30;72.50
16578;DHT22;8401;52.528;13.340;2023-05-10T12:40:23;24.30;73.00
16578;DHT22;8401;52.528;13.340;2023-05-10T12:42:49;24.40;73.10
16578;DHT22;8401;52.528;13.340;2023-05-10T12:45:14;24.60;72.80
16578;DHT22;8401;52.528;13.340;2023-05-10T12:47:40;24.80;73.10
16578;DHT22;8401;52.528;13.340;2023-05-10T12:50:06;24.90;73.40
16578;DHT22;8401;52.528;13.340;2023-05-10T12:52:32;25.10;73.40
16578;DHT22;8401;52.528;13.340;2023-05-10T12:54:58;25.00;73.40
16578;DHT22;8401;52.528;13.340;2023-05-10T12:57:25;24.80;73.60
16578;DHT22;8401;52.528;13.340;2023-05-10T12:59:50;24.60;74.50
16578;DHT22;8401;52.528;13.340;2023-05-10T13:02:16;24.60;75.20
16578;DHT22;8401;52.528;13.340;2023-05-10T13:04:46;24.60;75.30
16578;DHT22;8401;52.528;13.340;2023-05-10T13:07:12;24.70;75.50
16578;DHT22;8401;52.528;13.340;2023-05-10T13:09:38;24.60;74.40
16578;DHT22;8401;52.528;13.340;2023-05-10T13:12:04;24.40;74.00
16578;DHT22;8401;52.528;13.340;2023-05-10T13:14:30;24.20;74.40
16578;DHT22;8401;52.528;13.340;2023-05-10T13:16:56;24.20;74.60
16578;DHT22;8401;52.528;13.340;2023-05-10T13:19:21;24.30;74.40
16578;DHT22;8401;52.528;13.340;2023-05-10T13:21:47;24.30;74.70
16578;DHT22;8401;52.528;13.340;2023-05-10T13:24:13;24.20;74.70
16578;DHT22;8401;52.528;13.340;2023-05-10T13:26:39;24.40;75.30
16578;DHT22;8401;52.528;13.340;2023-05-10T13:29:06;24.50;75.30
16578;DHT22;8401;52.528;13.340;2023-05-10T13:31:32;24.50;75.50
16578;DHT22;8401;52.528;13.340;2023-05-10T13:33:57;24.60;74.90
16578;DHT22;8401;52.528;13.340;2023-05-10T13:36:23;24.60;74.70
16578;DHT22;8401;52.528;13.340;2023-05-10T13:38:49;24.60;75.80
16578;DHT22;8401;52.528;13.340;2023-05-10T13:41:14;24.80;74.50
16578;DHT22;8401;52.528;13.340;2023-05-10T13:43:40;24.90;73.80
16578;DHT22;8401;52.528;13.340;2023-05-10T13:46:05;24.90;72.90
16578;DHT22;8401;52.528;13.340;2023-05-10T13:48:31;25.00;73.00
16578;DHT22;8401;52.528;13.340;2023-05-10T13:50:57;24.90;71.60
16578;DHT22;8401;52.528;13.340;2023-05-10T13:53:22;24.90;71.00
16578;DHT22;8401;52.528;13.340;2023-05-10T13:55:48;24.80;71.00
16578;DHT22;8401;52.528;13.340;2023-05-10T13:58:14;24.70;72.10
16578;DHT22;8401;52.528;13.340;2023-05-10T14:00:40;24.80;72.50
16578;DHT22;8401;52.528;13.340;2023-05-10T14:03:05;24.60;73.40
16578;DHT22;8401;52.528;13.340;2023-05-10T14:05:32;24.80;73.90
16578;DHT22;8401;52.528;13.340;2023-05-10T14:07:58;25.00;73.10
16578;DHT22;8401;52.528;13.340;2023-05-10T14:10:24;24.90;72.20
16578;DHT22;8401;52.528;13.340;2023-05-10T14:12:50;24.80;72.30
16578;DHT22;8401;52.528;13.340;2023-05-10T14:15:16;24.40;71.20
16578;DHT22;8401;52.528;13.340;2023-05-10T14:17:41;24.10;71.80
16578;DHT22;8401;52.528;13.340;2023-05-10T14:20:07;24.00;72.00
16578;DHT22;8401;52.528;13.340;2023-05-10T14:22:33;24.00;72.00
16578;DHT22;8401;52.528;13.340;2023-05-10T14:24:59;23.70;72.60
16578;DHT22;8401;52.528;13.340;2023-05-10T14:27:25;23.80;72.90
16578;DHT22;8401;52.528;13.340;2023-05-10T14:29:51;24.00;72.70
16578;DHT22;8401;52.528;13.340;2023-05-10T14:32:17;24.20;72.30
16578;DHT22;8401;52.528;13.340;2023-05-10T14:34:43;24.30;70.30
16578;DHT22;8401;52.528;13.340;2023-05-10T14:37:11;24.20;69.70
16578;DHT22;8401;52.528;13.340;2023-05-10T14:39:37;24.10;70.20
16578;DHT22;8401;52.528;13.340;2023-05-10T14:42:03;24.10;70.90
16578;DHT22;8401;52.528;13.340;2023-05-10T14:44:29;24.10;71.20
16578;DHT22;8401;52.528;13.340;2023-05-10T14:46:55;24.30;70.40
16578;DHT22;8401;52.528;13.340;2023-05-10T14:49:21;24.40;70.70
16578;DHT22;8401;52.528;13.340;2023-05-10T14:51:48;24.50;70.40
16578;DHT22;8401;52.528;13.340;2023-05-10T14:54:14;24.50;70.70
16578;DHT22;8401;52.528;13.340;2023-05-10T14:56:39;24.60;70.10
16578;DHT22;8401;52.528;13.340;2023-05-10T14:59:07;24.30;69.80
16578;DHT22;8401;52.528;13.340;2023-05-10T15:01:33;24.20;70.60
16578;DHT22;8401;52.528;13.340;2023-05-10T15:04:00;24.20;70.90
16578;DHT22;8401;52.528;13.340;2023-05-10T15:06:35;24.10;72.20
16578;DHT22;8401;52.528;13.340;2023-05-10T15:09:01;23.90;72.30
16578;DHT22;8401;52.528;13.340;2023-05-10T15:11:28;23.90;72.80
16578;DHT22;8401;52.528;13.340;2023-05-10T15:13:55;23.60;72.10
16578;DHT22;8401;52.528;13.340;2023-05-10T15:16:20;23.60;72.60
16578;DHT22;8401;52.528;13.340;2023-05-10T15:18:46;23.60;73.20
16578;DHT22;8401;52.528;13.340;2023-05-10T15:21:12;23.80;72.70
16578;DHT22;8401;52.528;13.340;2023-05-10T15:23:38;23.90;72.60
16578;DHT22;8401;52.528;13.340;2023-05-10T15:26:03;23.90;72.80
16578;DHT22;8401;52.528;13.340;2023-05-10T15:28:29;24.00;72.80
16578;DHT22;8401;52.528;13.340;2023-05-10T15:30:55;24.00;73.10
16578;DHT22;8401;52.528;13.340;2023-05-10T15:33:21;24.00;73.00
16578;DHT22;8401;52.528;13.340;2023-05-10T15:35:47;23.90;72.80
16578;DHT22;8401;52.528;13.340;2023-05-10T15:38:13;23.70;72.90
16578;DHT22;8401;52.528;13.340;2023-05-10T15:40:39;23.60;73.40
16578;DHT22;8401;52.528;13.340;2023-05-10T15:43:05;23.60;73.30
16578;DHT22;8401;52.528;13.340;2023-05-10T15:45:30;23.60;73.40
16578;DHT22;8401;52.528;13.340;2023-05-10T15:47:57;23.60;73.60
16578;DHT22;8401;52.528;13.340;2023-05-10T15:50:24;23.60;73.40
16578;DHT22;8401;52.528;13.340;2023-05-10T15:52:49;23.40;73.70
16578;DHT22;8401;52.528;13.340;2023-05-10T15:55:16;23.30;74.30
16578;DHT22;8401;52.528;13.340;2023-05-10T15:57:43;23.30;74.70
16578;DHT22;8401;52.528;13.340;2023-05-10T16:00:10;23.30;75.10
16578;DHT22;8401;52.528;13.340;2023-05-10T16:02:36;23.20;75.50
16578;DHT22;8401;52.528;13.340;2023-05-10T16:05:02;23.30;75.20
16578;DHT22;8401;52.528;13.340;2023-05-10T16:07:28;23.40;75.00